CCGS Sir Wilfrid Laurier — CGJK — position and weather

sailwx.info

Track history (hours):
 
Tides and Currents Weather Stations Pressure Air Temp Water Temp Dewpoint Dewpoint Depression Visibility Wind Speed Wind Dir Waves Ship Positions

Oceanographic research ship CCGS Sir Wilfrid Laurier (Canada)

Detailed information on ship capabilities available from ARCUS's ALIAS (Arctic Logistics Information and Support) project.

Last reported at 2018-Feb-25 23:00 UTC. Time now 2018-Feb-25 23:43 UTC.
Position N 49°48' W 141°54'.

Length 83 m; beam 16.2 m; draft 6 m.

Type: SAR. MMSI: 316052000.

Wind from 300 at 35 knots

Barometer 1023.9 mb
Air temperature 5.6 ° C
Dewpoint 1.1 ° C
Water temperature 7.0 ° C

Date/timePositionNaut miles runAvg speedWind from/ knotsBaromVisibWave heightAir tempDewpointWater temp
2018-Feb-25 23:00N 49°48' W 141°54'4 3.9 300 / 351023.9 5.6 1.1 7.0
2018-Feb-25 22:00N 49°48' W 141°48'8 7.7 300 / 321023.8 4.0 1.6 7.0
2018-Feb-25 21:00N 49°48' W 141°36'4 3.9 300 / 351023.3 5.6 1.0 7.0
2018-Feb-25 20:00N 49°48' W 141°30'8 7.7 300 / 351022.6 5.4 0.3 7.1
2018-Feb-25 19:00N 49°48' W 141°18'4 3.9 310 / 341022.2 5.4-1.1 7.1
2018-Feb-25 18:00N 49°48' W 141°12'8 7.7 300 / 341021.8 5.4 4.1 0.9 7.0
2018-Feb-25 17:00N 49°48' W 141°00'7 7.1 310 / 411021.0 5.2-1.4 7.0
2018-Feb-25 16:00N 49°42' W 140°54'4 3.9 300 / 371020.7 3.5-0.3 7.1
2018-Feb-25 15:00N 49°42' W 140°48'4 3.9 290 / 411020.4 5.0 0.3 7.1
2018-Feb-25 14:00N 49°42' W 140°42'4 3.9 290 / 391020.7 4.2 0.8 7.1
2018-Feb-25 13:00N 49°42' W 140°36'4 3.9 300 / 371020.5 4.5 0.9 7.1
2018-Feb-25 12:00N 49°42' W 140°30'8 7.8 290 / 391020.5 5.3-0.4 7.1
2018-Feb-25 11:00N 49°42' W 140°18'4 3.9 290 / 401021.0 5.2-0.5 7.2
2018-Feb-25 10:00N 49°42' W 140°12'8 7.8 290 / 391021.2 5.5-2.0 7.1
2018-Feb-25 09:00N 49°42' W 140°00'7 7.1 280 / 401020.9 5.0 0.1 7.1
2018-Feb-25 08:00N 49°36' W 139°54'8 7.8 290 / 461021.1 5.3-0.2 7.0
2018-Feb-25 07:00N 49°36' W 139°42'4 3.9 290 / 401021.4 5.1 0.9 7.0
2018-Feb-25 06:00N 49°36' W 139°36'8 7.8 290 / 391021.8 5.4 5.6-0.9 7.1
2018-Feb-25 05:00N 49°36' W 139°24'8 7.8 290 / 391021.5 5.8-0.7 7.3
2018-Feb-25 04:00N 49°36' W 139°12'8 7.8 290 / 401021.3 6.0 0.5 7.3
2018-Feb-25 03:00N 49°36' W 139°00'4 3.9 290 / 361021.2 5.9-0.2 7.3
2018-Feb-25 02:00N 49°36' W 138°54'4 3.9 290 / 401021.0 6.0 0.2 7.3
2018-Feb-25 01:00N 49°36' W 138°48'8 7.8 290 / 391021.5 6.3 0.6 7.3
2018-Feb-25 00:00N 49°36' W 138°36'10 9.8 290 / 391021.3 5.4 6.7 0.8 7.5
2018-Feb-24 23:00N 49°30' W 138°24'8 7.8 290 / 401021.6 7.0 2.7 7.5
2018-Feb-24 22:00N 49°30' W 138°12'1211.7 280 / 361021.3 7.0 4.2 7.5
2018-Feb-24 21:00N 49°30' W 137°54'4 3.9 280 / 341022.0 6.7 5.4 7.7
2018-Feb-24 20:00N 49°30' W 137°48'8 7.8 270 / 371022.5 6.8 5.4 8.0
2018-Feb-24 19:00N 49°30' W 137°36'8 7.8 270 / 391022.8 6.5 5.0 7.9
2018-Feb-24 18:00N 49°30' W 137°24'8 7.8 270 / 361023.0 6.3 5.0 7.8
2018-Feb-24 17:00N 49°30' W 137°12'1313.2 260 / 321023.4 6.1 4.4 7.9
2018-Feb-24 16:00N 49°24' W 136°54'8 7.8 270 / 321024.3 6.1 3.3 7.8
2018-Feb-24 15:00N 49°24' W 136°42'4 3.9 280 / 291025.7 6.1 3.0 7.8
2018-Feb-24 14:00N 49°24' W 136°36'8 7.8 280 / 281025.9 6.0 3.3 7.7
2018-Feb-24 13:00N 49°24' W 136°24'4 3.9 280 / 281026.7 6.0 3.2 7.6
2018-Feb-24 12:00N 49°24' W 136°18'8 7.8 290 / 291026.9 6.5 3.6 7.6
2018-Feb-24 11:00N 49°24' W 136°06'8 7.8 290 / 291027.3 6.8 3.9 7.6
2018-Feb-24 10:00N 49°24' W 135°54'8 7.8 300 / 311027.2 6.7 3.6 7.7
2018-Feb-24 09:00N 49°24' W 135°42'10 9.9 300 / 311026.7 6.7 3.5 7.8
2018-Feb-24 08:00N 49°18' W 135°30'8 7.8 290 / 321026.3 6.5 3.3 7.8
2018-Feb-24 07:00N 49°18' W 135°18'8 7.8 300 / 321026.0 6.5 2.9 7.8
2018-Feb-24 06:00N 49°18' W 135°06'8 7.8 300 / 341026.2 6.4 2.2 7.9
2018-Feb-24 05:00N 49°18' W 134°54'8 7.8 300 / 321025.8 6.5 2.1 7.9
2018-Feb-24 04:00N 49°18' W 134°42'4 3.9 300 / 331025.6 6.5 2.4 7.9
2018-Feb-24 03:00N 49°18' W 134°36'8 7.8 300 / 341024.9 6.5 1.9 8.0
2018-Feb-24 02:00N 49°18' W 134°24'1313.2 300 / 351024.6 6.7 2.1 7.8
2018-Feb-24 01:00N 49°12' W 134°06'8 7.8
2018-Feb-24 00:00N 49°12' W 133°54'8 7.8
2018-Feb-23 23:00N 49°12' W 133°42'0 0.0 290 / 351025.1 6.8 2.0 7.9
2018-Feb-23 22:00N 49°12' W 133°42'0 0.0 290 / 321025.9 6.6 2.4 7.9
2018-Feb-23 21:00N 49°12' W 133°42'8 7.8 300 / 271026.4 6.7 2.0 8.0
2018-Feb-23 20:00N 49°12' W 133°30'1211.8 300 / 261026.7 6.8 1.9 8.3
2018-Feb-23 19:00N 49°12' W 133°12'1313.2 310 / 261026.6 6.8 1.6 8.2
2018-Feb-23 18:00N 49°06' W 132°54'8 7.9 300 / 261026.2 6.6 1.7 8.2
2018-Feb-23 17:00N 49°06' W 132°42'0 0.0 300 / 261026.0 6.9 2.6 8.2
2018-Feb-23 16:00N 49°06' W 132°42'0 0.0 300 / 341025.3 6.9 2.2 8.2
2018-Feb-23 15:00N 49°06' W 132°42'0 0.0 300 / 331025.3 6.5 5.1 8.2
2018-Feb-23 14:00N 49°06' W 132°42'8 7.9 290 / 311025.1 7.2 6.2 8.2
2018-Feb-23 13:00N 49°06' W 132°30'8 7.9 280 / 331024.5 7.1 6.1 8.3
2018-Feb-23 12:00N 49°06' W 132°18'1211.8 270 / 301025.5 6.8 6.1 8.3
2018-Feb-23 11:00N 49°06' W 132°00'8 7.9 270 / 301025.8 6.8 4.3 8.3
2018-Feb-23 10:00N 49°06' W 131°48'7 7.2 260 / 271027.2 6.6 5.5 8.3
2018-Feb-23 09:00N 49°00' W 131°42'0 0.0 260 / 251028.6 6.5 3.8 8.3
2018-Feb-23 08:00N 49°00' W 131°42'0 0.0 260 / 221029.5 6.6 3.8 8.3
2018-Feb-23 07:00N 49°00' W 131°42'8 7.9 260 / 221030.2 6.3 3.4 8.3
2018-Feb-23 06:00N 49°00' W 131°30'8 7.9 270 / 231030.1 6.4 4.6 8.3
2018-Feb-23 05:00N 49°00' W 131°18'1313.3 280 / 171030.5 6.7 4.3 8.5
2018-Feb-23 04:00N 48°54' W 131°00'8 7.9 290 / 161030.9 7.2 3.1 8.5
2018-Feb-23 03:00N 48°54' W 130°48'4 3.9 310 / 151030.6 7.0 2.7 8.5
2018-Feb-23 02:00N 48°54' W 130°42'0 0.0 290 / 141031.0 6.6 2.5
2018-Feb-23 01:00N 48°54' W 130°42'0 0.0 300 / 121031.0 6.6 1.2
2018-Feb-23 00:00N 48°54' W 130°42'0 0.0 310 / 161031.210.8 6.6 1.0
2018-Feb-22 23:00N 48°54' W 130°42'0 0.0 310 / 181031.5 6.8 2.2
2018-Feb-22 22:00N 48°54' W 130°42'0 0.0 310 / 161031.9 7.2 1.1
2018-Feb-22 21:00N 48°54' W 130°42'0 0.0 320 / 141032.4 7.3 1.4
2018-Feb-22 20:00N 48°54' W 130°42'0 0.0 330 / 121032.7 7.2 1.3
2018-Feb-22 19:00N 48°54' W 130°42'0 0.0 330 / 151032.5 7.2 2.0
2018-Feb-22 18:00N 48°54' W 130°42'0 0.0 330 / 151032.2 7.4 1.9
2018-Feb-22 17:00N 48°54' W 130°42'0 0.0 340 / 151031.7 7.2 0.2
2018-Feb-22 16:00N 48°54' W 130°42'0 0.0 350 / 171031.1 7.1-0.4
2018-Feb-22 15:00N 48°54' W 130°42'0 0.0 350 / 201030.7 7.1-1.5 8.5
2018-Feb-22 14:00N 48°54' W 130°42'4 3.9 350 / 221030.3 7.1-0.8 8.5
2018-Feb-22 13:00N 48°54' W 130°36'8 7.9 350 / 211029.7 7.1-0.0 8.6
2018-Feb-22 12:00N 48°54' W 130°24'8 7.9 360 / 221029.4 6.9-0.1 8.6
2018-Feb-22 11:00N 48°54' W 130°12'8 7.9 350 / 241029.0 7.0 0.4 8.6
2018-Feb-22 10:00N 48°54' W 130°00'4 3.9 350 / 271028.2 6.9-0.6 8.5
2018-Feb-22 09:00N 48°54' W 129°54'8 7.9 360 / 281027.7 6.9-0.0 8.5
2018-Feb-22 08:00N 48°54' W 129°42'8 7.9 350 / 311026.9 7.3 0.5 8.5
2018-Feb-22 07:00N 48°54' W 129°30'8 7.9 340 / 321025.810.8 7.5 1.4 8.6
2018-Feb-22 06:00N 48°54' W 129°18'4 3.9 340 / 331025.4 7.4 1.0 8.7
2018-Feb-22 05:00N 48°54' W 129°12'1313.3 340 / 321024.7 7.4 1.6 8.6
2018-Feb-22 04:00N 48°48' W 128°54'8 7.9 340 / 341023.8 7.2 0.8 8.6
2018-Feb-22 03:00N 48°48' W 128°42'0 0.0 340 / 351023.9 7.2 0.6
2018-Feb-22 02:00N 48°48' W 128°42'0 0.0 340 / 351024.0 6.9 2.0
2018-Feb-22 01:00N 48°48' W 128°42'0 0.0 340 / 341024.1 7.4 1.9
2018-Feb-22 00:00N 48°48' W 128°42'0 0.0 340 / 281024.5 7.2 2.9 8.6
2018-Feb-21 23:00N 48°48' W 128°42'0 0.0 330 / 291024.4 7.5 2.6 8.6
2018-Feb-21 22:00N 48°48' W 128°42'4 4.0 340 / 261024.5 6.4 3.3 8.6
2018-Feb-21 21:00N 48°48' W 128°36'8 7.9 320 / 241024.9 6.4 3.4 8.6
2018-Feb-21 20:00N 48°48' W 128°24'8 7.9 320 / 191025.4 6.4 2.3 8.7
2018-Feb-21 19:00N 48°48' W 128°12'0 0.0 310 / 171025.7 6.0 1.3 8.7
2018-Feb-21 18:00N 48°48' W 128°12'1211.9 310 / 151025.8 5.8 1.1 8.8
2018-Feb-21 17:00N 48°48' W 127°54'8 7.9 310 / 151025.9 5.9-2.0 8.9
2018-Feb-21 16:00N 48°48' W 127°42'6 6.0 310 / 161026.1 5.6-1.8 9.0
2018-Feb-21 15:00N 48°42' W 127°42'0 0.0 300 / 131026.5 5.5-1.6 8.9
2018-Feb-21 14:00N 48°42' W 127°42'1211.9 280 / 111025.9 5.2-1.7 9.0
2018-Feb-21 13:00N 48°42' W 127°24'8 7.9 250 / 81026.9 5.4-1.8 8.9
2018-Feb-21 12:00N 48°42' W 127°12'0 0.0 200 / 71027.3 4.9-2.6 8.8
2018-Feb-21 11:00N 48°42' W 127°12'8 7.9 170 / 51027.8 4.7-2.6 8.8
2018-Feb-21 10:00N 48°42' W 127°00'8 7.9 160 / 41027.6 4.6-3.5 8.6
2018-Feb-21 09:00N 48°42' W 126°48'7 7.2 110 / 91028.1 4.3-6.1 8.9
2018-Feb-21 08:00N 48°36' W 126°42'6 6.0 090 / 41028.1 4.4-4.8
2018-Feb-21 07:00N 48°42' W 126°42'0 0.0 080 / 61027.7 4.4-3.7
2018-Feb-21 06:00N 48°42' W 126°42'6 6.0 070 / 31027.2 4.2-3.6
2018-Feb-21 05:00N 48°36' W 126°42'0 0.0 130 / 31026.3 4.6-1.6
2018-Feb-21 04:00N 48°36' W 126°42'0 0.0 030 / 31026.0 4.3-1.5
2018-Feb-21 03:00N 48°36' W 126°42'0 0.0 030 / 51025.3 4.1-2.0 9.2
2018-Feb-21 02:00N 48°36' W 126°42'367.5 020 / 61024.7 3.8-2.1 9.2
2018-Feb-21 01:57N 48°39' W 126°40'3 3.4
2018-Feb-21 01:00N 48°36' W 126°42'8 7.9 020 / 51023.8 4.1-1.9 9.2
2018-Feb-21 00:00N 48°36' W 126°30'384.8 040 / 71023.3 4.4-2.0 9.2
2018-Feb-20 23:58N 48°39' W 126°31'610.7
2018-Feb-20 23:25N 48°38' W 126°22'3 7.6
2018-Feb-20 23:00N 48°36' W 126°18'213.9 080 / 91022.8 3.5-2.7 9.1
2018-Feb-20 22:50N 48°38' W 126°20'0 0.2
2018-Feb-20 22:25N 48°38' W 126°20'3 8.1
2018-Feb-20 22:00N 48°37' W 126°15'2216.5
2018-Feb-20 22:00N 48°36' W 126°12'3 6.6 080 / 101022.5 3.4-2.4 9.1
2018-Feb-20 21:30N 48°36' W 126°07'5 9.2
2018-Feb-20 21:00N 48°36' W 126°00'011.8
2018-Feb-20 21:00N 48°36' W 126°00'0 0.0 060 / 71022.7 2.2-2.7 9.0
2018-Feb-20 20:30N 48°36' W 126°00'4 7.8
2018-Feb-20 20:00N 48°36' W 125°54'4230.4 080 / 121022.5 2.1-1.6 9.1
2018-Feb-20 19:58N 48°36' W 126°00'0 0.1
2018-Feb-20 19:30N 48°36' W 126°00'0 0.2
2018-Feb-20 19:00N 48°36' W 126°00'0 8.5
2018-Feb-20 19:00N 48°36' W 126°00'0 0.1 090 / 191021.9 2.2-1.4 9.1
2018-Feb-20 18:26N 48°36' W 126°00'1 1.9
2018-Feb-20 18:00N 48°36' W 125°59'3202.6
2018-Feb-20 18:00N 48°36' W 125°54'3 6.9 090 / 181022.1 3.4-1.0 9.1
2018-Feb-20 17:30N 48°35' W 125°49'713.6
2018-Feb-20 17:00N 48°35' W 125°39'2130.0
2018-Feb-20 17:00N 48°36' W 125°36'4 8.3 090 / 171021.3 3.2-2.3 9.7
2018-Feb-20 16:29N 48°35' W 125°30'0 0.4
2018-Feb-20 16:00N 48°34' W 125°30'2114.9
2018-Feb-20 16:00N 48°36' W 125°30'612.1 090 / 191020.8 2.9-2.7 9.1
2018-Feb-20 15:30N 48°34' W 125°22'713.2
2018-Feb-20 15:00N 48°36' W 125°12'32495.1 090 / 171020.9 2.9-3.1 8.9
2018-Feb-20 14:59N 48°33' W 125°12'612.2
2018-Feb-20 14:29N 48°33' W 125°03'612.4
2018-Feb-20 14:00N 48°32' W 124°54'2108.4
2018-Feb-20 14:00N 48°30' W 124°54'613.0 090 / 151021.1 2.7-3.8 8.4
2018-Feb-20 13:30N 48°31' W 124°45'612.4
2018-Feb-20 13:00N 48°28' W 124°36'2120.8
2018-Feb-20 13:00N 48°30' W 124°36'714.4 100 / 91021.4 2.2-5.8 8.4
2018-Feb-20 12:29N 48°26' W 124°27'612.3
2018-Feb-20 12:00N 48°24' W 124°19'144.1
2018-Feb-20 12:00N 48°24' W 124°18'612.2 090 / 141021.7 2.3-6.6 8.4
2018-Feb-20 11:30N 48°21' W 124°10'612.3
2018-Feb-20 11:00N 48°19' W 124°02'188.5
2018-Feb-20 11:00N 48°18' W 124°00'510.8 070 / 111022.2 2.1-5.9 8.4
2018-Feb-20 10:30N 48°17' W 123°52'713.6
2018-Feb-20 10:00N 48°18' W 123°42'2240.8 100 / 81022.6 1.8-8.7 8.4
2018-Feb-20 09:59N 48°16' W 123°42'713.6
2018-Feb-20 09:27N 48°15' W 123°31'511.3
2018-Feb-20 09:00N 48°18' W 123°24'239.4 130 / 71022.8 1.7-8.1 8.4
2018-Feb-20 08:57N 48°16' W 123°23'613.6
2018-Feb-20 08:31N 48°19' W 123°15'4 8.1
2018-Feb-20 08:00N 48°23' W 123°12'186.8
2018-Feb-20 08:00N 48°24' W 123°12'612.1 140 / 111022.8 2.0-9.2 8.3
2018-Feb-20 07:31N 48°30' W 123°13'714.9
2018-Feb-20 07:00N 48°37' W 123°14'2139.4
2018-Feb-20 07:00N 48°36' W 123°12'917.9 140 / 81022.9 1.6-12.6 8.4
2018-Feb-20 06:31N 48°44' W 123°17'5 9.5
2018-Feb-20 06:00N 48°44' W 123°24'2142.1
2018-Feb-20 06:00N 48°42' W 123°24'4 8.3 180 / 41023.1 1.4-8.5 8.1
2018-Feb-20 05:30N 48°42' W 123°30'1 2.7
2018-Feb-20 05:00N 48°41' W 123°30'187.7
2018-Feb-20 05:00N 48°42' W 123°30'1 3.0 130 / 31023.4 0.9-9.5 8.5
2018-Feb-20 04:30N 48°41' W 123°30'0 0.4
2018-Feb-20 04:00N 48°40' W 123°30'2111.3
2018-Feb-20 04:00N 48°42' W 123°30'2 3.6 150 / 31023.4 0.9-9.5 8.4
2018-Feb-20 03:30N 48°40' W 123°30'0 0.1
2018-Feb-20 03:00N 48°40' W 123°30'2125.1
2018-Feb-20 03:00N 48°42' W 123°30'2 3.9 080 / 31023.2 0.8-7.6 8.3
2018-Feb-20 02:30N 48°40' W 123°30'0 0.2
2018-Feb-20 02:00N 48°40' W 123°30'2305.2
2018-Feb-20 02:00N 48°42' W 123°30'2 4.5 110 / 31023.0 0.7-9.4 8.4
2018-Feb-20 01:30N 48°40' W 123°30'0 0.2
2018-Feb-20 01:00N 48°40' W 123°30'2192.9
2018-Feb-20 01:00N 48°42' W 123°30'2 5.1 110 / 71023.2 1.3-10.4 8.3
2018-Feb-20 00:30N 48°40' W 123°30'0 0.4
2018-Feb-20 00:00N 48°39' W 123°30'3167.2
2018-Feb-20 00:00N 48°42' W 123°30'3 6.0 100 / 51023.9 1.5-10.7 8.3
2018-Feb-19 23:30N 48°39' W 123°28'3 5.7
2018-Feb-19 23:00N 48°42' W 123°30'0 0.0 090 / 31024.3 2.9-11.3
2018-Feb-19 22:00N 48°42' W 123°30'0 0.0 130 / 51024.7 1.8-12.5
2018-Feb-19 21:00N 48°42' W 123°30'3 6.8 110 / 41025.2 2.0-13.0
2018-Feb-19 20:30N 48°39' W 123°27'3 6.6
2018-Feb-19 20:00N 48°42' W 123°30'317.7 120 / 41025.5 1.6-13.1
2018-Feb-19 19:48N 48°39' W 123°27'0 0.0
2018-Feb-19 19:24N 48°39' W 123°27'3 8.2
2018-Feb-19 19:00N 48°42' W 123°30'384.3 080 / 51025.6 1.5-12.8
2018-Feb-19 18:57N 48°39' W 123°27'0 0.0
2018-Feb-19 18:30N 48°39' W 123°27'0 0.0
2018-Feb-19 18:00N 48°39' W 123°27'3317.3
2018-Feb-19 18:00N 48°42' W 123°30'3 6.7 360 / 71025.4 0.5-12.8
2018-Feb-19 17:30N 48°39' W 123°27'0 0.2
2018-Feb-19 17:00N 48°39' W 123°27'3309.2
2018-Feb-19 17:00N 48°42' W 123°30'3 6.8 040 / 61025.1 0.2-13.4
2018-Feb-19 16:30N 48°39' W 123°27'0 0.0
2018-Feb-19 16:00N 48°39' W 123°27'3325.9
2018-Feb-19 16:00N 48°42' W 123°30'3 6.2 060 / 61024.6 -0.2-12.6
2018-Feb-19 15:27N 48°39' W 123°27'0 0.0
2018-Feb-19 15:00N 48°39' W 123°27'3317.3
2018-Feb-19 15:00N 48°42' W 123°30'3 6.8 060 / 51024.0 -0.8-12.7
2018-Feb-19 14:30N 48°39' W 123°27'0 0.0
2018-Feb-19 14:00N 48°39' W 123°27'3309.2
2018-Feb-19 14:00N 48°42' W 123°30'3 6.8 040 / 51023.6 -0.5-12.8
2018-Feb-19 13:30N 48°39' W 123°27'0 0.0
2018-Feb-19 13:00N 48°39' W 123°27'3317.3
2018-Feb-19 13:00N 48°42' W 123°30'3 6.8 030 / 111022.5 -0.2-12.4
2018-Feb-19 12:30N 48°39' W 123°27'0 0.0
2018-Feb-19 12:00N 48°39' W 123°27'3325.9
2018-Feb-19 12:00N 48°42' W 123°30'3 6.8 360 / 51021.8 -0.3-12.7
2018-Feb-19 11:30N 48°39' W 123°27'0 0.0
2018-Feb-19 11:00N 48°39' W 123°27'3309.2
2018-Feb-19 11:00N 48°42' W 123°30'3 6.8 040 / 81021.6 -0.3-13.9
2018-Feb-19 10:30N 48°39' W 123°27'3 6.6
2018-Feb-19 10:00N 48°42' W 123°30'385.5 050 / 111020.7 -0.1-14.6
2018-Feb-19 09:57N 48°39' W 123°27'0 0.0
2018-Feb-19 09:30N 48°39' W 123°27'0 0.0
2018-Feb-19 09:00N 48°39' W 123°27'3309.2
2018-Feb-19 09:00N 48°42' W 123°30'3 5.7 050 / 151020.5 -0.1-14.9
2018-Feb-19 08:24N 48°39' W 123°27'3 8.2
2018-Feb-19 08:00N 48°42' W 123°30'384.9 050 / 151020.0 -0.0-15.5
2018-Feb-19 07:57N 48°39' W 123°27'0 0.0
2018-Feb-19 07:30N 48°39' W 123°27'0 0.0
2018-Feb-19 07:00N 48°39' W 123°27'3317.3
2018-Feb-19 07:00N 48°42' W 123°30'3 6.2 030 / 101019.4 0.2-13.8
2018-Feb-19 06:27N 48°39' W 123°27'0 0.0
2018-Feb-19 06:00N 48°39' W 123°27'3317.3
2018-Feb-19 06:00N 48°42' W 123°30'3 6.2 050 / 131018.6 0.3-14.0
2018-Feb-19 05:27N 48°39' W 123°27'0 0.0
2018-Feb-19 05:00N 48°39' W 123°27'3317.3
2018-Feb-19 05:00N 48°42' W 123°30'3 6.8 030 / 91017.9 0.4-12.2
2018-Feb-19 04:30N 48°39' W 123°27'0 0.0
2018-Feb-19 04:00N 48°39' W 123°27'3317.3
2018-Feb-19 04:00N 48°42' W 123°30'3 6.8 020 / 91016.7 0.7-12.8
2018-Feb-19 03:30N 48°39' W 123°27'0 0.0
2018-Feb-19 03:00N 48°39' W 123°27'3309.2
2018-Feb-19 03:00N 48°42' W 123°30'3 6.8 030 / 151016.2 1.1-13.8
2018-Feb-19 02:30N 48°39' W 123°27'0 0.0
2018-Feb-19 02:00N 48°39' W 123°27'3317.3
2018-Feb-19 02:00N 48°42' W 123°30'3 6.8 010 / 111015.4 1.4-12.5
2018-Feb-19 01:30N 48°39' W 123°27'0 0.0
2018-Feb-19 01:00N 48°39' W 123°27'3309.2
2018-Feb-19 01:00N 48°42' W 123°30'3 6.8 350 / 81014.4 1.7-11.4
2018-Feb-19 00:30N 48°39' W 123°27'3 6.6
2018-Feb-19 00:00N 48°42' W 123°30'385.5 360 / 91013.9 1.9-10.7
2018-Feb-18 23:57N 48°39' W 123°27'0 0.0
2018-Feb-18 23:30N 48°39' W 123°27'0 0.0
2018-Feb-18 23:00N 48°39' W 123°27'3309.2
2018-Feb-18 23:00N 48°42' W 123°30'3 6.8 360 / 91012.9 1.9-10.9
2018-Feb-18 22:30N 48°39' W 123°27'3 6.6
2018-Feb-18 22:00N 48°42' W 123°30'384.9 360 / 101012.7 2.1-10.5
2018-Feb-18 21:57N 48°39' W 123°27'0 0.0
2018-Feb-18 21:30N 48°39' W 123°27'0 0.0
2018-Feb-18 21:00N 48°39' W 123°27'3309.2
2018-Feb-18 21:00N 48°42' W 123°30'3 6.8 030 / 141012.2 2.2-10.2
2018-Feb-18 20:30N 48°39' W 123°27'0 0.0
2018-Feb-18 20:00N 48°39' W 123°27'3309.2
2018-Feb-18 20:00N 48°42' W 123°30'3 6.8 050 / 161011.7 1.9-8.4
2018-Feb-18 19:30N 48°39' W 123°27'0 0.0
2018-Feb-18 19:00N 48°39' W 123°27'3309.2
2018-Feb-18 19:00N 48°42' W 123°30'3 6.8 050 / 151010.7 1.7-8.0
2018-Feb-18 18:30N 48°39' W 123°27'0 0.0
2018-Feb-18 18:00N 48°39' W 123°27'3317.3
2018-Feb-18 18:00N 48°42' W 123°30'3 6.8 030 / 151009.6 1.7-8.5
2018-Feb-18 17:30N 48°39' W 123°27'3 6.6
2018-Feb-18 17:00N 48°42' W 123°30'0 0.0 030 / 171008.3 2.1-9.0
2018-Feb-18 16:00N 48°42' W 123°30'0 0.0 050 / 141007.0 2.2-6.6
2018-Feb-18 15:00N 48°42' W 123°30'3 9.9 060 / 171005.6 2.1-7.4
2018-Feb-18 14:39N 48°39' W 123°27'0 0.0
2018-Feb-18 14:30N 48°39' W 123°27'0 0.0
2018-Feb-18 14:00N 48°39' W 123°27'3317.3
2018-Feb-18 14:00N 48°42' W 123°30'3 6.8 060 / 181004.3 1.6-4.1
2018-Feb-18 13:30N 48°39' W 123°27'3 6.6
2018-Feb-18 13:00N 48°42' W 123°30'384.9 070 / 191003.1 1.2-0.0
2018-Feb-18 12:57N 48°39' W 123°27'0 0.0
2018-Feb-18 12:30N 48°39' W 123°27'0 0.0
2018-Feb-18 12:00N 48°39' W 123°27'3309.2
2018-Feb-18 12:00N 48°42' W 123°30'3 6.8 020 / 31002.2 2.2-0.6
2018-Feb-18 11:30N 48°39' W 123°27'0 0.0
2018-Feb-18 11:00N 48°39' W 123°27'3317.3
2018-Feb-18 11:00N 48°42' W 123°30'3 6.8 210 / 61001.8 3.5-0.5
2018-Feb-18 10:30N 48°39' W 123°27'3 6.6
2018-Feb-18 10:00N 48°42' W 123°30'385.5 220 / 81001.5 3.6-0.0
2018-Feb-18 09:57N 48°39' W 123°27'0 0.0
2018-Feb-18 09:30N 48°39' W 123°27'0 0.0
2018-Feb-18 09:00N 48°39' W 123°27'3317.3
2018-Feb-18 09:00N 48°42' W 123°30'3 6.2 220 / 91001.5 3.8-0.3
2018-Feb-18 08:27N 48°39' W 123°27'0 0.0
2018-Feb-18 08:00N 48°39' W 123°27'3317.3
2018-Feb-18 08:00N 48°42' W 123°30'3 6.8 200 / 71001.0 3.7-0.1
2018-Feb-18 07:30N 48°39' W 123°27'0 0.0
2018-Feb-18 07:00N 48°39' W 123°27'3317.3
2018-Feb-18 07:00N 48°42' W 123°30'3 6.8 220 / 101000.0 4.8-2.3
2018-Feb-18 06:30N 48°39' W 123°27'0 0.0
2018-Feb-18 06:00N 48°39' W 123°27'3317.3
2018-Feb-18 06:00N 48°42' W 123°30'3 6.2 270 / 22999.5 6.4-3.0
2018-Feb-18 05:27N 48°39' W 123°27'3 7.3
2018-Feb-18 05:00N 48°42' W 123°30'385.5 260 / 20999.2 7.0-0.6
2018-Feb-18 04:57N 48°39' W 123°27'0 0.0
2018-Feb-18 04:30N 48°39' W 123°27'0 0.0
2018-Feb-18 04:00N 48°39' W 123°27'3317.3
2018-Feb-18 04:00N 48°42' W 123°30'3 6.2 220 / 7999.4 7.0 2.6
2018-Feb-18 03:27N 48°39' W 123°27'0 0.0
2018-Feb-18 03:00N 48°39' W 123°27'3317.3
2018-Feb-18 03:00N 48°42' W 123°30'3 6.8 200 / 5999.8 7.0 2.9
2018-Feb-18 02:30N 48°39' W 123°27'0 0.0
2018-Feb-18 02:00N 48°39' W 123°27'3317.3
2018-Feb-18 02:00N 48°42' W 123°30'3 6.8 250 / 6999.8 8.5 3.3 8.6
2018-Feb-18 01:30N 48°39' W 123°27'0 0.0
2018-Feb-18 01:00N 48°39' W 123°27'3309.2
2018-Feb-18 01:00N 48°42' W 123°30'3 6.2 280 / 11999.9 8.5 1.8 8.4
2018-Feb-18 00:27N 48°39' W 123°27'0 0.0
2018-Feb-18 00:00N 48°39' W 123°27'3309.2
2018-Feb-18 00:00N 48°42' W 123°30'3 6.8 270 / 13999.8 9.4 2.4 8.4
2018-Feb-17 23:30N 48°39' W 123°27'2 3.8
2018-Feb-17 23:01N 48°40' W 123°30'2142.2
2018-Feb-17 23:00N 48°42' W 123°30'4 7.8 260 / 14998.6 8.7 2.1 8.7
2018-Feb-17 22:30N 48°44' W 123°25'610.9
2018-Feb-17 22:00N 48°44' W 123°16'2381.3
2018-Feb-17 22:00N 48°42' W 123°18'510.1 240 / 21998.6 7.9 1.0 8.7
2018-Feb-17 21:30N 48°38' W 123°14'612.9
2018-Feb-17 21:00N 48°32' W 123°12'2116.5
2018-Feb-17 21:00N 48°30' W 123°12'5 9.7 220 / 24999.6 7.0 2.6 8.7
2018-Feb-17 20:30N 48°25' W 123°10'612.3
2018-Feb-17 20:00N 48°22' W 123°18'2196.0
2018-Feb-17 20:00N 48°24' W 123°18'5 8.4 260 / 341001.2 7.3 4.3 8.7
2018-Feb-17 19:25N 48°24' W 123°25'1 2.0
2018-Feb-17 19:00N 48°24' W 123°24'124.4 260 / 30999.6 7.3 4.0 8.7
2018-Feb-17 18:58N 48°24' W 123°25'2 2.6
2018-Feb-17 18:22N 48°25' W 123°24'1 3.2
2018-Feb-17 18:00N 48°24' W 123°24'162.8 230 / 19999.4 8.0 7.0 8.7
2018-Feb-17 17:58N 48°23' W 123°24'1313.5
2018-Feb-17 17:00N 48°12' W 123°36'7 8.7 210 / 51001.0 6.0 3.7 8.7
2018-Feb-17 16:11N 48°13' W 123°46'210.1
2018-Feb-17 16:00N 48°13' W 123°49'1167.7
2018-Feb-17 16:00N 48°12' W 123°48'612.0 100 / 171002.8 5.3 3.4 8.6
2018-Feb-17 15:29N 48°14' W 123°57'511.2
2018-Feb-17 15:00N 48°16' W 124°04'2205.1
2018-Feb-17 15:00N 48°18' W 124°06'4 7.8 120 / 161005.9 5.6 4.5 8.6
2018-Feb-17 14:30N 48°19' W 124°12'612.0
2018-Feb-17 14:01N 48°21' W 124°20'3176.3
2018-Feb-17 14:00N 48°18' W 124°18'918.2 160 / 81009.2 6.2 4.6 8.6
2018-Feb-17 13:31N 48°23' W 124°29'612.5
2018-Feb-17 13:00N 48°26' W 124°37'2138.8
2018-Feb-17 13:00N 48°24' W 124°36'816.6 180 / 71011.5 5.9 4.4 8.6
2018-Feb-17 12:30N 48°29' W 124°46'510.7
2018-Feb-17 12:00N 48°30' W 124°54'244.9 210 / 141013.3 5.8 3.8 9.0
2018-Feb-17 11:57N 48°29' W 124°56'510.3
2018-Feb-17 11:28N 48°31' W 125°03'816.0
2018-Feb-17 11:00N 48°36' W 125°12'27966.5 240 / 101015.1 5.5 3.4 9.0
2018-Feb-17 10:59N 48°34' W 125°10'612.4
2018-Feb-17 10:31N 48°38' W 125°18'612.2
2018-Feb-17 10:00N 48°41' W 125°25'1463.9
2018-Feb-17 10:00N 48°42' W 125°24'613.1 220 / 111016.2 5.9 3.1 9.8
2018-Feb-17 09:31N 48°45' W 125°33'611.8
2018-Feb-17 09:00N 48°48' W 125°40'1101.1
2018-Feb-17 09:00N 48°48' W 125°42'4 9.2 240 / 91017.4 6.2 1.5 9.1
2018-Feb-17 08:31N 48°52' W 125°46'5 9.9
2018-Feb-17 08:00N 48°55' W 125°52'1244.1
2018-Feb-17 08:00N 48°54' W 125°54'5 9.4 230 / 81018.4 7.8 2.7 9.3
2018-Feb-17 07:30N 48°58' W 125°58'510.1
2018-Feb-17 07:00N 49°01' W 126°04'187.4
2018-Feb-17 07:00N 49°00' W 126°06'5 9.3 260 / 71019.5 7.9 2.4 9.2
2018-Feb-17 06:30N 49°04' W 126°10'611.1
2018-Feb-17 06:00N 49°06' W 126°18'157.7 270 / 71020.0 7.9 2.5 9.2
2018-Feb-17 05:58N 49°06' W 126°16'5 9.3
2018-Feb-17 05:29N 49°09' W 126°22'5 9.7
2018-Feb-17 05:01N 49°12' W 126°28'187.6
2018-Feb-17 05:00N 49°12' W 126°30'4 7.5 310 / 81020.2 7.8 2.2 9.2
2018-Feb-17 04:31N 49°15' W 126°34'5 9.7
2018-Feb-17 04:01N 49°18' W 126°40'294.7
2018-Feb-17 04:00N 49°18' W 126°42'4 7.9 310 / 111021.0 7.9 1.8 9.1
2018-Feb-17 03:31N 49°21' W 126°45'510.5
2018-Feb-17 03:00N 49°25' W 126°51'2249.4
2018-Feb-17 03:00N 49°24' W 126°48'714.9 320 / 111021.3 7.6 1.8 9.1
2018-Feb-17 02:30N 49°29' W 126°57'2 4.8
2018-Feb-17 02:00N 49°30' W 127°00'1716.7 310 / 121021.8 7.8 1.7 9.1
2018-Feb-17 01:00N 49°42' W 127°18'10 9.8 310 / 171022.7 8.3 2.0 8.8
2018-Feb-17 00:00N 49°48' W 127°30'10 9.8 300 / 121022.7 8.3 2.5 8.8
2018-Feb-16 23:00N 49°54' W 127°42'10 9.8 320 / 81021.9 7.9 1.1 9.1
2018-Feb-16 22:00N 50°00' W 127°54'6 6.0 340 / 111021.9 7.3 0.3 8.7
2018-Feb-16 21:00N 50°06' W 127°54'1414.2 340 / 161023.3 8.9 2.1 8.8
2018-Feb-16 20:00N 50°18' W 128°06'10 9.7 350 / 101023.4 8.2 3.1 8.8
2018-Feb-16 19:00N 50°24' W 127°54'10 9.7 050 / 51023.4 5.9 3.1 8.6
2018-Feb-16 18:00N 50°30' W 127°42'0 0.0 210 / 51023.6 4.7 4.0
2018-Feb-16 17:00N 50°30' W 127°42'0 0.0 280 / 41022.9 3.9 3.3
2018-Feb-16 16:00N 50°30' W 127°42'0 0.0 300 / 21022.0 3.2 2.9
2018-Feb-16 15:00N 50°30' W 127°42'0 0.0 280 / 11021.7 3.7 3.4
2018-Feb-16 14:00N 50°30' W 127°42'0 0.0 1021.7 3.5 3.1
2018-Feb-16 13:00N 50°30' W 127°42'0 0.0 110 / 21021.7 3.8 3.0
2018-Feb-16 12:00N 50°30' W 127°42'0 0.0 1022.1 3.7 3.4
2018-Feb-16 11:00N 50°30' W 127°42'0 0.0 070 / 31022.8 3.8 2.9
2018-Feb-16 10:00N 50°30' W 127°42'0 0.0 310 / 21023.1 3.5 2.3
2018-Feb-16 09:00N 50°30' W 127°42'0 0.0 330 / 21024.1 3.4 2.9
2018-Feb-16 08:00N 50°30' W 127°42'0 0.0 310 / 11024.5 3.4 2.5
2018-Feb-16 07:00N 50°30' W 127°42'0 0.0 150 / 21025.1 3.3 2.0
2018-Feb-16 06:00N 50°30' W 127°42'0 0.0 160 / 21026.0 3.5 2.3
2018-Feb-16 05:00N 50°30' W 127°42'0 0.0 250 / 11026.3 3.8 2.7
2018-Feb-16 04:00N 50°30' W 127°42'0 0.0 350 / 21026.5 3.8 3.0
2018-Feb-16 03:00N 50°30' W 127°42'0 0.0 330 / 31026.8 3.9 3.0
2018-Feb-16 02:00N 50°30' W 127°42'0 0.0 290 / 11027.2 4.3 3.3
2018-Feb-16 01:00N 50°30' W 127°42'0 0.0 310 / 31027.6 4.6 3.2
2018-Feb-16 00:00N 50°30' W 127°42'0 0.0 280 / 31028.0 4.4 2.8
2018-Feb-15 23:00N 50°30' W 127°42'   330 / 41028.0 4.4 3.0
Track history (hours):
 
Tides and Currents Weather Stations Pressure Air Temp Water Temp Dewpoint Dewpoint Depression Visibility Wind Speed Wind Dir Waves Ship Positions

Oceanographic research ship CCGS Sir Wilfrid Laurier (Canada)

Detailed information on ship capabilities available from ARCUS's ALIAS (Arctic Logistics Information and Support) project.

Last reported at 2018-Feb-25 23:00 UTC. Time now 2018-Feb-25 23:43 UTC.
Position N 49°48' W 141°54'.

Length 83 m; beam 16.2 m; draft 6 m.

Type: SAR. MMSI: 316052000.

Wind from 300 at 35 knots

Barometer 1023.9 mb
Air temperature 5.6 ° C
Dewpoint 1.1 ° C
Water temperature 7.0 ° C

Date/timePositionNaut miles runAvg speedWind from/ knotsBaromVisibWave heightAir tempDewpointWater temp
2018-Feb-25 23:00N 49°48' W 141°54'4 3.9 300 / 351023.9 5.6 1.1 7.0
2018-Feb-25 22:00N 49°48' W 141°48'8 7.7 300 / 321023.8 4.0 1.6 7.0
2018-Feb-25 21:00N 49°48' W 141°36'4 3.9 300 / 351023.3 5.6 1.0 7.0
2018-Feb-25 20:00N 49°48' W 141°30'8 7.7 300 / 351022.6 5.4 0.3 7.1
2018-Feb-25 19:00N 49°48' W 141°18'4 3.9 310 / 341022.2 5.4-1.1 7.1
2018-Feb-25 18:00N 49°48' W 141°12'8 7.7 300 / 341021.8 5.4 4.1 0.9 7.0
2018-Feb-25 17:00N 49°48' W 141°00'7 7.1 310 / 411021.0 5.2-1.4 7.0
2018-Feb-25 16:00N 49°42' W 140°54'4 3.9 300 / 371020.7 3.5-0.3 7.1
2018-Feb-25 15:00N 49°42' W 140°48'4 3.9 290 / 411020.4 5.0 0.3 7.1
2018-Feb-25 14:00N 49°42' W 140°42'4 3.9 290 / 391020.7 4.2 0.8 7.1
2018-Feb-25 13:00N 49°42' W 140°36'4 3.9 300 / 371020.5 4.5 0.9 7.1
2018-Feb-25 12:00N 49°42' W 140°30'8 7.8 290 / 391020.5 5.3-0.4 7.1
2018-Feb-25 11:00N 49°42' W 140°18'4 3.9 290 / 401021.0 5.2-0.5 7.2
2018-Feb-25 10:00N 49°42' W 140°12'8 7.8 290 / 391021.2 5.5-2.0 7.1
2018-Feb-25 09:00N 49°42' W 140°00'7 7.1 280 / 401020.9 5.0 0.1 7.1
2018-Feb-25 08:00N 49°36' W 139°54'8 7.8 290 / 461021.1 5.3-0.2 7.0
2018-Feb-25 07:00N 49°36' W 139°42'4 3.9 290 / 401021.4 5.1 0.9 7.0
2018-Feb-25 06:00N 49°36' W 139°36'8 7.8 290 / 391021.8 5.4 5.6-0.9 7.1
2018-Feb-25 05:00N 49°36' W 139°24'8 7.8 290 / 391021.5 5.8-0.7 7.3
2018-Feb-25 04:00N 49°36' W 139°12'8 7.8 290 / 401021.3 6.0 0.5 7.3
2018-Feb-25 03:00N 49°36' W 139°00'4 3.9 290 / 361021.2 5.9-0.2 7.3
2018-Feb-25 02:00N 49°36' W 138°54'4 3.9 290 / 401021.0 6.0 0.2 7.3
2018-Feb-25 01:00N 49°36' W 138°48'8 7.8 290 / 391021.5 6.3 0.6 7.3
2018-Feb-25 00:00N 49°36' W 138°36'10 9.8 290 / 391021.3 5.4 6.7 0.8 7.5
2018-Feb-24 23:00N 49°30' W 138°24'8 7.8 290 / 401021.6 7.0 2.7 7.5
2018-Feb-24 22:00N 49°30' W 138°12'1211.7 280 / 361021.3 7.0 4.2 7.5
2018-Feb-24 21:00N 49°30' W 137°54'4 3.9 280 / 341022.0 6.7 5.4 7.7
2018-Feb-24 20:00N 49°30' W 137°48'8 7.8 270 / 371022.5 6.8 5.4 8.0
2018-Feb-24 19:00N 49°30' W 137°36'8 7.8 270 / 391022.8 6.5 5.0 7.9
2018-Feb-24 18:00N 49°30' W 137°24'8 7.8 270 / 361023.0 6.3 5.0 7.8
2018-Feb-24 17:00N 49°30' W 137°12'1313.2 260 / 321023.4 6.1 4.4 7.9
2018-Feb-24 16:00N 49°24' W 136°54'8 7.8 270 / 321024.3 6.1 3.3 7.8
2018-Feb-24 15:00N 49°24' W 136°42'4 3.9 280 / 291025.7 6.1 3.0 7.8
2018-Feb-24 14:00N 49°24' W 136°36'8 7.8 280 / 281025.9 6.0 3.3 7.7
2018-Feb-24 13:00N 49°24' W 136°24'4 3.9 280 / 281026.7 6.0 3.2 7.6
2018-Feb-24 12:00N 49°24' W 136°18'8 7.8 290 / 291026.9 6.5 3.6 7.6
2018-Feb-24 11:00N 49°24' W 136°06'8 7.8 290 / 291027.3 6.8 3.9 7.6
2018-Feb-24 10:00N 49°24' W 135°54'8 7.8 300 / 311027.2 6.7 3.6 7.7
2018-Feb-24 09:00N 49°24' W 135°42'10 9.9 300 / 311026.7 6.7 3.5 7.8
2018-Feb-24 08:00N 49°18' W 135°30'8 7.8 290 / 321026.3 6.5 3.3 7.8
2018-Feb-24 07:00N 49°18' W 135°18'8 7.8 300 / 321026.0 6.5 2.9 7.8
2018-Feb-24 06:00N 49°18' W 135°06'8 7.8 300 / 341026.2 6.4 2.2 7.9
2018-Feb-24 05:00N 49°18' W 134°54'8 7.8 300 / 321025.8 6.5 2.1 7.9
2018-Feb-24 04:00N 49°18' W 134°42'4 3.9 300 / 331025.6 6.5 2.4 7.9
2018-Feb-24 03:00N 49°18' W 134°36'8 7.8 300 / 341024.9 6.5 1.9 8.0
2018-Feb-24 02:00N 49°18' W 134°24'1313.2 300 / 351024.6 6.7 2.1 7.8
2018-Feb-24 01:00N 49°12' W 134°06'8 7.8
2018-Feb-24 00:00N 49°12' W 133°54'8 7.8
2018-Feb-23 23:00N 49°12' W 133°42'0 0.0 290 / 351025.1 6.8 2.0 7.9
2018-Feb-23 22:00N 49°12' W 133°42'0 0.0 290 / 321025.9 6.6 2.4 7.9
2018-Feb-23 21:00N 49°12' W 133°42'8 7.8 300 / 271026.4 6.7 2.0 8.0
2018-Feb-23 20:00N 49°12' W 133°30'1211.8 300 / 261026.7 6.8 1.9 8.3
2018-Feb-23 19:00N 49°12' W 133°12'1313.2 310 / 261026.6 6.8 1.6 8.2
2018-Feb-23 18:00N 49°06' W 132°54'8 7.9 300 / 261026.2 6.6 1.7 8.2
2018-Feb-23 17:00N 49°06' W 132°42'0 0.0 300 / 261026.0 6.9 2.6 8.2
2018-Feb-23 16:00N 49°06' W 132°42'0 0.0 300 / 341025.3 6.9 2.2 8.2
2018-Feb-23 15:00N 49°06' W 132°42'0 0.0 300 / 331025.3 6.5 5.1 8.2
2018-Feb-23 14:00N 49°06' W 132°42'8 7.9 290 / 311025.1 7.2 6.2 8.2
2018-Feb-23 13:00N 49°06' W 132°30'8 7.9 280 / 331024.5 7.1 6.1 8.3
2018-Feb-23 12:00N 49°06' W 132°18'1211.8 270 / 301025.5 6.8 6.1 8.3
2018-Feb-23 11:00N 49°06' W 132°00'8 7.9 270 / 301025.8 6.8 4.3 8.3
2018-Feb-23 10:00N 49°06' W 131°48'7 7.2 260 / 271027.2 6.6 5.5 8.3
2018-Feb-23 09:00N 49°00' W 131°42'0 0.0 260 / 251028.6 6.5 3.8 8.3
2018-Feb-23 08:00N 49°00' W 131°42'0 0.0 260 / 221029.5 6.6 3.8 8.3
2018-Feb-23 07:00N 49°00' W 131°42'8 7.9 260 / 221030.2 6.3 3.4 8.3
2018-Feb-23 06:00N 49°00' W 131°30'8 7.9 270 / 231030.1 6.4 4.6 8.3
2018-Feb-23 05:00N 49°00' W 131°18'1313.3 280 / 171030.5 6.7 4.3 8.5
2018-Feb-23 04:00N 48°54' W 131°00'8 7.9 290 / 161030.9 7.2 3.1 8.5
2018-Feb-23 03:00N 48°54' W 130°48'4 3.9 310 / 151030.6 7.0 2.7 8.5
2018-Feb-23 02:00N 48°54' W 130°42'0 0.0 290 / 141031.0 6.6 2.5
2018-Feb-23 01:00N 48°54' W 130°42'0 0.0 300 / 121031.0 6.6 1.2
2018-Feb-23 00:00N 48°54' W 130°42'0 0.0 310 / 161031.210.8 6.6 1.0
2018-Feb-22 23:00N 48°54' W 130°42'0 0.0 310 / 181031.5 6.8 2.2
2018-Feb-22 22:00N 48°54' W 130°42'0 0.0 310 / 161031.9 7.2 1.1
2018-Feb-22 21:00N 48°54' W 130°42'0 0.0 320 / 141032.4 7.3 1.4
2018-Feb-22 20:00N 48°54' W 130°42'0 0.0 330 / 121032.7 7.2 1.3
2018-Feb-22 19:00N 48°54' W 130°42'0 0.0 330 / 151032.5 7.2 2.0
2018-Feb-22 18:00N 48°54' W 130°42'0 0.0 330 / 151032.2 7.4 1.9
2018-Feb-22 17:00N 48°54' W 130°42'0 0.0 340 / 151031.7 7.2 0.2
2018-Feb-22 16:00N 48°54' W 130°42'0 0.0 350 / 171031.1 7.1-0.4
2018-Feb-22 15:00N 48°54' W 130°42'0 0.0 350 / 201030.7 7.1-1.5 8.5
2018-Feb-22 14:00N 48°54' W 130°42'4 3.9 350 / 221030.3 7.1-0.8 8.5
2018-Feb-22 13:00N 48°54' W 130°36'8 7.9 350 / 211029.7 7.1-0.0 8.6
2018-Feb-22 12:00N 48°54' W 130°24'8 7.9 360 / 221029.4 6.9-0.1 8.6
2018-Feb-22 11:00N 48°54' W 130°12'8 7.9 350 / 241029.0 7.0 0.4 8.6
2018-Feb-22 10:00N 48°54' W 130°00'4 3.9 350 / 271028.2 6.9-0.6 8.5
2018-Feb-22 09:00N 48°54' W 129°54'8 7.9 360 / 281027.7 6.9-0.0 8.5
2018-Feb-22 08:00N 48°54' W 129°42'8 7.9 350 / 311026.9 7.3 0.5 8.5
2018-Feb-22 07:00N 48°54' W 129°30'8 7.9 340 / 321025.810.8 7.5 1.4 8.6
2018-Feb-22 06:00N 48°54' W 129°18'4 3.9 340 / 331025.4 7.4 1.0 8.7
2018-Feb-22 05:00N 48°54' W 129°12'1313.3 340 / 321024.7 7.4 1.6 8.6
2018-Feb-22 04:00N 48°48' W 128°54'8 7.9 340 / 341023.8 7.2 0.8 8.6
2018-Feb-22 03:00N 48°48' W 128°42'0 0.0 340 / 351023.9 7.2 0.6
2018-Feb-22 02:00N 48°48' W 128°42'0 0.0 340 / 351024.0 6.9 2.0
2018-Feb-22 01:00N 48°48' W 128°42'0 0.0 340 / 341024.1 7.4 1.9
2018-Feb-22 00:00N 48°48' W 128°42'0 0.0 340 / 281024.5 7.2 2.9 8.6
2018-Feb-21 23:00N 48°48' W 128°42'0 0.0 330 / 291024.4 7.5 2.6 8.6
2018-Feb-21 22:00N 48°48' W 128°42'4 4.0 340 / 261024.5 6.4 3.3 8.6
2018-Feb-21 21:00N 48°48' W 128°36'8 7.9 320 / 241024.9 6.4 3.4 8.6
2018-Feb-21 20:00N 48°48' W 128°24'8 7.9 320 / 191025.4 6.4 2.3 8.7
2018-Feb-21 19:00N 48°48' W 128°12'0 0.0 310 / 171025.7 6.0 1.3 8.7
2018-Feb-21 18:00N 48°48' W 128°12'1211.9 310 / 151025.8 5.8 1.1 8.8
2018-Feb-21 17:00N 48°48' W 127°54'8 7.9 310 / 151025.9 5.9-2.0 8.9
2018-Feb-21 16:00N 48°48' W 127°42'6 6.0 310 / 161026.1 5.6-1.8 9.0
2018-Feb-21 15:00N 48°42' W 127°42'0 0.0 300 / 131026.5 5.5-1.6 8.9
2018-Feb-21 14:00N 48°42' W 127°42'1211.9 280 / 111025.9 5.2-1.7 9.0
2018-Feb-21 13:00N 48°42' W 127°24'8 7.9 250 / 81026.9 5.4-1.8 8.9
2018-Feb-21 12:00N 48°42' W 127°12'0 0.0 200 / 71027.3 4.9-2.6 8.8
2018-Feb-21 11:00N 48°42' W 127°12'8 7.9 170 / 51027.8 4.7-2.6 8.8
2018-Feb-21 10:00N 48°42' W 127°00'8 7.9 160 / 41027.6 4.6-3.5 8.6
2018-Feb-21 09:00N 48°42' W 126°48'7 7.2 110 / 91028.1 4.3-6.1 8.9
2018-Feb-21 08:00N 48°36' W 126°42'6 6.0 090 / 41028.1 4.4-4.8
2018-Feb-21 07:00N 48°42' W 126°42'0 0.0 080 / 61027.7 4.4-3.7
2018-Feb-21 06:00N 48°42' W 126°42'6 6.0 070 / 31027.2 4.2-3.6
2018-Feb-21 05:00N 48°36' W 126°42'0 0.0 130 / 31026.3 4.6-1.6
2018-Feb-21 04:00N 48°36' W 126°42'0 0.0 030 / 31026.0 4.3-1.5
2018-Feb-21 03:00N 48°36' W 126°42'0 0.0 030 / 51025.3 4.1-2.0 9.2
2018-Feb-21 02:00N 48°36' W 126°42'367.5 020 / 61024.7 3.8-2.1 9.2
2018-Feb-21 01:57N 48°39' W 126°40'3 3.4
2018-Feb-21 01:00N 48°36' W 126°42'8 7.9 020 / 51023.8 4.1-1.9 9.2
2018-Feb-21 00:00N 48°36' W 126°30'384.8 040 / 71023.3 4.4-2.0 9.2
2018-Feb-20 23:58N 48°39' W 126°31'610.7
2018-Feb-20 23:25N 48°38' W 126°22'3 7.6
2018-Feb-20 23:00N 48°36' W 126°18'213.9 080 / 91022.8 3.5-2.7 9.1
2018-Feb-20 22:50N 48°38' W 126°20'0 0.2
2018-Feb-20 22:25N 48°38' W 126°20'3 8.1
2018-Feb-20 22:00N 48°37' W 126°15'2216.5
2018-Feb-20 22:00N 48°36' W 126°12'3 6.6 080 / 101022.5 3.4-2.4 9.1
2018-Feb-20 21:30N 48°36' W 126°07'5 9.2
2018-Feb-20 21:00N 48°36' W 126°00'011.8
2018-Feb-20 21:00N 48°36' W 126°00'0 0.0 060 / 71022.7 2.2-2.7 9.0
2018-Feb-20 20:30N 48°36' W 126°00'4 7.8
2018-Feb-20 20:00N 48°36' W 125°54'4230.4 080 / 121022.5 2.1-1.6 9.1
2018-Feb-20 19:58N 48°36' W 126°00'0 0.1
2018-Feb-20 19:30N 48°36' W 126°00'0 0.2
2018-Feb-20 19:00N 48°36' W 126°00'0 8.5
2018-Feb-20 19:00N 48°36' W 126°00'0 0.1 090 / 191021.9 2.2-1.4 9.1
2018-Feb-20 18:26N 48°36' W 126°00'1 1.9
2018-Feb-20 18:00N 48°36' W 125°59'3202.6
2018-Feb-20 18:00N 48°36' W 125°54'3 6.9 090 / 181022.1 3.4-1.0 9.1
2018-Feb-20 17:30N 48°35' W 125°49'713.6
2018-Feb-20 17:00N 48°35' W 125°39'2130.0
2018-Feb-20 17:00N 48°36' W 125°36'4 8.3 090 / 171021.3 3.2-2.3 9.7
2018-Feb-20 16:29N 48°35' W 125°30'0 0.4
2018-Feb-20 16:00N 48°34' W 125°30'2114.9
2018-Feb-20 16:00N 48°36' W 125°30'612.1 090 / 191020.8 2.9-2.7 9.1
2018-Feb-20 15:30N 48°34' W 125°22'713.2
2018-Feb-20 15:00N 48°36' W 125°12'32495.1 090 / 171020.9 2.9-3.1 8.9
2018-Feb-20 14:59N 48°33' W 125°12'612.2
2018-Feb-20 14:29N 48°33' W 125°03'612.4
2018-Feb-20 14:00N 48°32' W 124°54'2108.4
2018-Feb-20 14:00N 48°30' W 124°54'613.0 090 / 151021.1 2.7-3.8 8.4
2018-Feb-20 13:30N 48°31' W 124°45'612.4
2018-Feb-20 13:00N 48°28' W 124°36'2120.8
2018-Feb-20 13:00N 48°30' W 124°36'714.4 100 / 91021.4 2.2-5.8 8.4
2018-Feb-20 12:29N 48°26' W 124°27'612.3
2018-Feb-20 12:00N 48°24' W 124°19'144.1
2018-Feb-20 12:00N 48°24' W 124°18'612.2 090 / 141021.7 2.3-6.6 8.4
2018-Feb-20 11:30N 48°21' W 124°10'612.3
2018-Feb-20 11:00N 48°19' W 124°02'188.5
2018-Feb-20 11:00N 48°18' W 124°00'510.8 070 / 111022.2 2.1-5.9 8.4
2018-Feb-20 10:30N 48°17' W 123°52'713.6
2018-Feb-20 10:00N 48°18' W 123°42'2240.8 100 / 81022.6 1.8-8.7 8.4
2018-Feb-20 09:59N 48°16' W 123°42'713.6
2018-Feb-20 09:27N 48°15' W 123°31'511.3
2018-Feb-20 09:00N 48°18' W 123°24'239.4 130 / 71022.8 1.7-8.1 8.4
2018-Feb-20 08:57N 48°16' W 123°23'613.6
2018-Feb-20 08:31N 48°19' W 123°15'4 8.1
2018-Feb-20 08:00N 48°23' W 123°12'186.8
2018-Feb-20 08:00N 48°24' W 123°12'612.1 140 / 111022.8 2.0-9.2 8.3
2018-Feb-20 07:31N 48°30' W 123°13'714.9
2018-Feb-20 07:00N 48°37' W 123°14'2139.4
2018-Feb-20 07:00N 48°36' W 123°12'917.9 140 / 81022.9 1.6-12.6 8.4
2018-Feb-20 06:31N 48°44' W 123°17'5 9.5
2018-Feb-20 06:00N 48°44' W 123°24'2142.1
2018-Feb-20 06:00N 48°42' W 123°24'4 8.3 180 / 41023.1 1.4-8.5 8.1
2018-Feb-20 05:30N 48°42' W 123°30'1 2.7
2018-Feb-20 05:00N 48°41' W 123°30'187.7
2018-Feb-20 05:00N 48°42' W 123°30'1 3.0 130 / 31023.4 0.9-9.5 8.5
2018-Feb-20 04:30N 48°41' W 123°30'0 0.4
2018-Feb-20 04:00N 48°40' W 123°30'2111.3
2018-Feb-20 04:00N 48°42' W 123°30'2 3.6 150 / 31023.4 0.9-9.5 8.4
2018-Feb-20 03:30N 48°40' W 123°30'0 0.1
2018-Feb-20 03:00N 48°40' W 123°30'2125.1
2018-Feb-20 03:00N 48°42' W 123°30'2 3.9 080 / 31023.2 0.8-7.6 8.3
2018-Feb-20 02:30N 48°40' W 123°30'0 0.2
2018-Feb-20 02:00N 48°40' W 123°30'2305.2
2018-Feb-20 02:00N 48°42' W 123°30'2 4.5 110 / 31023.0 0.7-9.4 8.4
2018-Feb-20 01:30N 48°40' W 123°30'0 0.2
2018-Feb-20 01:00N 48°40' W 123°30'2192.9
2018-Feb-20 01:00N 48°42' W 123°30'2 5.1 110 / 71023.2 1.3-10.4 8.3
2018-Feb-20 00:30N 48°40' W 123°30'0 0.4
2018-Feb-20 00:00N 48°39' W 123°30'3167.2
2018-Feb-20 00:00N 48°42' W 123°30'3 6.0 100 / 51023.9 1.5-10.7 8.3
2018-Feb-19 23:30N 48°39' W 123°28'3 5.7
2018-Feb-19 23:00N 48°42' W 123°30'0 0.0 090 / 31024.3 2.9-11.3
2018-Feb-19 22:00N 48°42' W 123°30'0 0.0 130 / 51024.7 1.8-12.5
2018-Feb-19 21:00N 48°42' W 123°30'3 6.8 110 / 41025.2 2.0-13.0
2018-Feb-19 20:30N 48°39' W 123°27'3 6.6
2018-Feb-19 20:00N 48°42' W 123°30'317.7 120 / 41025.5 1.6-13.1
2018-Feb-19 19:48N 48°39' W 123°27'0 0.0
2018-Feb-19 19:24N 48°39' W 123°27'3 8.2
2018-Feb-19 19:00N 48°42' W 123°30'384.3 080 / 51025.6 1.5-12.8
2018-Feb-19 18:57N 48°39' W 123°27'0 0.0
2018-Feb-19 18:30N 48°39' W 123°27'0 0.0
2018-Feb-19 18:00N 48°39' W 123°27'3317.3
2018-Feb-19 18:00N 48°42' W 123°30'3 6.7 360 / 71025.4 0.5-12.8
2018-Feb-19 17:30N 48°39' W 123°27'0 0.2
2018-Feb-19 17:00N 48°39' W 123°27'3309.2
2018-Feb-19 17:00N 48°42' W 123°30'3 6.8 040 / 61025.1 0.2-13.4
2018-Feb-19 16:30N 48°39' W 123°27'0 0.0
2018-Feb-19 16:00N 48°39' W 123°27'3325.9
2018-Feb-19 16:00N 48°42' W 123°30'3 6.2 060 / 61024.6 -0.2-12.6
2018-Feb-19 15:27N 48°39' W 123°27'0 0.0
2018-Feb-19 15:00N 48°39' W 123°27'3317.3
2018-Feb-19 15:00N 48°42' W 123°30'3 6.8 060 / 51024.0 -0.8-12.7
2018-Feb-19 14:30N 48°39' W 123°27'0 0.0
2018-Feb-19 14:00N 48°39' W 123°27'3309.2
2018-Feb-19 14:00N 48°42' W 123°30'3 6.8 040 / 51023.6 -0.5-12.8
2018-Feb-19 13:30N 48°39' W 123°27'0 0.0
2018-Feb-19 13:00N 48°39' W 123°27'3317.3
2018-Feb-19 13:00N 48°42' W 123°30'3 6.8 030 / 111022.5 -0.2-12.4
2018-Feb-19 12:30N 48°39' W 123°27'0 0.0
2018-Feb-19 12:00N 48°39' W 123°27'3325.9
2018-Feb-19 12:00N 48°42' W 123°30'3 6.8 360 / 51021.8 -0.3-12.7
2018-Feb-19 11:30N 48°39' W 123°27'0 0.0
2018-Feb-19 11:00N 48°39' W 123°27'3309.2
2018-Feb-19 11:00N 48°42' W 123°30'3 6.8 040 / 81021.6 -0.3-13.9
2018-Feb-19 10:30N 48°39' W 123°27'3 6.6
2018-Feb-19 10:00N 48°42' W 123°30'385.5 050 / 111020.7 -0.1-14.6
2018-Feb-19 09:57N 48°39' W 123°27'0 0.0
2018-Feb-19 09:30N 48°39' W 123°27'0 0.0
2018-Feb-19 09:00N 48°39' W 123°27'3309.2
2018-Feb-19 09:00N 48°42' W 123°30'3 5.7 050 / 151020.5 -0.1-14.9
2018-Feb-19 08:24N 48°39' W 123°27'3 8.2
2018-Feb-19 08:00N 48°42' W 123°30'384.9 050 / 151020.0 -0.0-15.5
2018-Feb-19 07:57N 48°39' W 123°27'0 0.0
2018-Feb-19 07:30N 48°39' W 123°27'0 0.0
2018-Feb-19 07:00N 48°39' W 123°27'3317.3
2018-Feb-19 07:00N 48°42' W 123°30'3 6.2 030 / 101019.4 0.2-13.8
2018-Feb-19 06:27N 48°39' W 123°27'0 0.0
2018-Feb-19 06:00N 48°39' W 123°27'3317.3
2018-Feb-19 06:00N 48°42' W 123°30'3 6.2 050 / 131018.6 0.3-14.0
2018-Feb-19 05:27N 48°39' W 123°27'0 0.0
2018-Feb-19 05:00N 48°39' W 123°27'3317.3
2018-Feb-19 05:00N 48°42' W 123°30'3 6.8 030 / 91017.9 0.4-12.2
2018-Feb-19 04:30N 48°39' W 123°27'0 0.0
2018-Feb-19 04:00N 48°39' W 123°27'3317.3
2018-Feb-19 04:00N 48°42' W 123°30'3 6.8 020 / 91016.7 0.7-12.8
2018-Feb-19 03:30N 48°39' W 123°27'0 0.0
2018-Feb-19 03:00N 48°39' W 123°27'3309.2
2018-Feb-19 03:00N 48°42' W 123°30'3 6.8 030 / 151016.2 1.1-13.8
2018-Feb-19 02:30N 48°39' W 123°27'0 0.0
2018-Feb-19 02:00N 48°39' W 123°27'3317.3
2018-Feb-19 02:00N 48°42' W 123°30'3 6.8 010 / 111015.4 1.4-12.5
2018-Feb-19 01:30N 48°39' W 123°27'0 0.0
2018-Feb-19 01:00N 48°39' W 123°27'3309.2
2018-Feb-19 01:00N 48°42' W 123°30'3 6.8 350 / 81014.4 1.7-11.4
2018-Feb-19 00:30N 48°39' W 123°27'3 6.6
2018-Feb-19 00:00N 48°42' W 123°30'385.5 360 / 91013.9 1.9-10.7
2018-Feb-18 23:57N 48°39' W 123°27'0 0.0
2018-Feb-18 23:30N 48°39' W 123°27'0 0.0
2018-Feb-18 23:00N 48°39' W 123°27'3309.2
2018-Feb-18 23:00N 48°42' W 123°30'3 6.8 360 / 91012.9 1.9-10.9
2018-Feb-18 22:30N 48°39' W 123°27'3 6.6
2018-Feb-18 22:00N 48°42' W 123°30'384.9 360 / 101012.7 2.1-10.5
2018-Feb-18 21:57N 48°39' W 123°27'0 0.0
2018-Feb-18 21:30N 48°39' W 123°27'0 0.0
2018-Feb-18 21:00N 48°39' W 123°27'3309.2
2018-Feb-18 21:00N 48°42' W 123°30'3 6.8 030 / 141012.2 2.2-10.2
2018-Feb-18 20:30N 48°39' W 123°27'0 0.0
2018-Feb-18 20:00N 48°39' W 123°27'3309.2
2018-Feb-18 20:00N 48°42' W 123°30'3 6.8 050 / 161011.7 1.9-8.4
2018-Feb-18 19:30N 48°39' W 123°27'0 0.0
2018-Feb-18 19:00N 48°39' W 123°27'3309.2
2018-Feb-18 19:00N 48°42' W 123°30'3 6.8 050 / 151010.7 1.7-8.0
2018-Feb-18 18:30N 48°39' W 123°27'0 0.0
2018-Feb-18 18:00N 48°39' W 123°27'3317.3
2018-Feb-18 18:00N 48°42' W 123°30'3 6.8 030 / 151009.6 1.7-8.5
2018-Feb-18 17:30N 48°39' W 123°27'3 6.6
2018-Feb-18 17:00N 48°42' W 123°30'0 0.0 030 / 171008.3 2.1-9.0
2018-Feb-18 16:00N 48°42' W 123°30'0 0.0 050 / 141007.0 2.2-6.6
2018-Feb-18 15:00N 48°42' W 123°30'3 9.9 060 / 171005.6 2.1-7.4
2018-Feb-18 14:39N 48°39' W 123°27'0 0.0
2018-Feb-18 14:30N 48°39' W 123°27'0 0.0
2018-Feb-18 14:00N 48°39' W 123°27'3317.3
2018-Feb-18 14:00N 48°42' W 123°30'3 6.8 060 / 181004.3 1.6-4.1
2018-Feb-18 13:30N 48°39' W 123°27'3 6.6
2018-Feb-18 13:00N 48°42' W 123°30'384.9 070 / 191003.1 1.2-0.0
2018-Feb-18 12:57N 48°39' W 123°27'0 0.0
2018-Feb-18 12:30N 48°39' W 123°27'0 0.0
2018-Feb-18 12:00N 48°39' W 123°27'3309.2
2018-Feb-18 12:00N 48°42' W 123°30'3 6.8 020 / 31002.2 2.2-0.6
2018-Feb-18 11:30N 48°39' W 123°27'0 0.0
2018-Feb-18 11:00N 48°39' W 123°27'3317.3
2018-Feb-18 11:00N 48°42' W 123°30'3 6.8 210 / 61001.8 3.5-0.5
2018-Feb-18 10:30N 48°39' W 123°27'3 6.6
2018-Feb-18 10:00N 48°42' W 123°30'385.5 220 / 81001.5 3.6-0.0
2018-Feb-18 09:57N 48°39' W 123°27'0 0.0
2018-Feb-18 09:30N 48°39' W 123°27'0 0.0
2018-Feb-18 09:00N 48°39' W 123°27'3317.3
2018-Feb-18 09:00N 48°42' W 123°30'3 6.2 220 / 91001.5 3.8-0.3
2018-Feb-18 08:27N 48°39' W 123°27'0 0.0
2018-Feb-18 08:00N 48°39' W 123°27'3317.3
2018-Feb-18 08:00N 48°42' W 123°30'3 6.8 200 / 71001.0 3.7-0.1
2018-Feb-18 07:30N 48°39' W 123°27'0 0.0
2018-Feb-18 07:00N 48°39' W 123°27'3317.3
2018-Feb-18 07:00N 48°42' W 123°30'3 6.8 220 / 101000.0 4.8-2.3
2018-Feb-18 06:30N 48°39' W 123°27'0 0.0
2018-Feb-18 06:00N 48°39' W 123°27'3317.3
2018-Feb-18 06:00N 48°42' W 123°30'3 6.2 270 / 22999.5 6.4-3.0
2018-Feb-18 05:27N 48°39' W 123°27'3 7.3
2018-Feb-18 05:00N 48°42' W 123°30'385.5 260 / 20999.2 7.0-0.6
2018-Feb-18 04:57N 48°39' W 123°27'0 0.0
2018-Feb-18 04:30N 48°39' W 123°27'0 0.0
2018-Feb-18 04:00N 48°39' W 123°27'3317.3
2018-Feb-18 04:00N 48°42' W 123°30'3 6.2 220 / 7999.4 7.0 2.6
2018-Feb-18 03:27N 48°39' W 123°27'0 0.0
2018-Feb-18 03:00N 48°39' W 123°27'3317.3
2018-Feb-18 03:00N 48°42' W 123°30'3 6.8 200 / 5999.8 7.0 2.9
2018-Feb-18 02:30N 48°39' W 123°27'0 0.0
2018-Feb-18 02:00N 48°39' W 123°27'3317.3
2018-Feb-18 02:00N 48°42' W 123°30'3 6.8 250 / 6999.8 8.5 3.3 8.6
2018-Feb-18 01:30N 48°39' W 123°27'0 0.0
2018-Feb-18 01:00N 48°39' W 123°27'3309.2
2018-Feb-18 01:00N 48°42' W 123°30'3 6.2 280 / 11999.9 8.5 1.8 8.4
2018-Feb-18 00:27N 48°39' W 123°27'0 0.0
2018-Feb-18 00:00N 48°39' W 123°27'3309.2
2018-Feb-18 00:00N 48°42' W 123°30'3 6.8 270 / 13999.8 9.4 2.4 8.4
2018-Feb-17 23:30N 48°39' W 123°27'2 3.8
2018-Feb-17 23:01N 48°40' W 123°30'2142.2
2018-Feb-17 23:00N 48°42' W 123°30'4 7.8 260 / 14998.6 8.7 2.1 8.7
2018-Feb-17 22:30N 48°44' W 123°25'610.9
2018-Feb-17 22:00N 48°44' W 123°16'2381.3
2018-Feb-17 22:00N 48°42' W 123°18'510.1 240 / 21998.6 7.9 1.0 8.7
2018-Feb-17 21:30N 48°38' W 123°14'612.9
2018-Feb-17 21:00N 48°32' W 123°12'2116.5
2018-Feb-17 21:00N 48°30' W 123°12'5 9.7 220 / 24999.6 7.0 2.6 8.7
2018-Feb-17 20:30N 48°25' W 123°10'612.3
2018-Feb-17 20:00N 48°22' W 123°18'2196.0
2018-Feb-17 20:00N 48°24' W 123°18'5 8.4 260 / 341001.2 7.3 4.3 8.7
2018-Feb-17 19:25N 48°24' W 123°25'1 2.0
2018-Feb-17 19:00N 48°24' W 123°24'124.4 260 / 30999.6 7.3 4.0 8.7
2018-Feb-17 18:58N 48°24' W 123°25'2 2.6
2018-Feb-17 18:22N 48°25' W 123°24'1 3.2
2018-Feb-17 18:00N 48°24' W 123°24'162.8 230 / 19999.4 8.0 7.0 8.7
2018-Feb-17 17:58N 48°23' W 123°24'1313.5
2018-Feb-17 17:00N 48°12' W 123°36'7 8.7 210 / 51001.0 6.0 3.7 8.7
2018-Feb-17 16:11N 48°13' W 123°46'210.1
2018-Feb-17 16:00N 48°13' W 123°49'1167.7
2018-Feb-17 16:00N 48°12' W 123°48'612.0 100 / 171002.8 5.3 3.4 8.6
2018-Feb-17 15:29N 48°14' W 123°57'511.2
2018-Feb-17 15:00N 48°16' W 124°04'2205.1
2018-Feb-17 15:00N 48°18' W 124°06'4 7.8 120 / 161005.9 5.6 4.5 8.6
2018-Feb-17 14:30N 48°19' W 124°12'612.0
2018-Feb-17 14:01N 48°21' W 124°20'3176.3
2018-Feb-17 14:00N 48°18' W 124°18'918.2 160 / 81009.2 6.2 4.6 8.6
2018-Feb-17 13:31N 48°23' W 124°29'612.5
2018-Feb-17 13:00N 48°26' W 124°37'2138.8
2018-Feb-17 13:00N 48°24' W 124°36'816.6 180 / 71011.5 5.9 4.4 8.6
2018-Feb-17 12:30N 48°29' W 124°46'510.7
2018-Feb-17 12:00N 48°30' W 124°54'244.9 210 / 141013.3 5.8 3.8 9.0
2018-Feb-17 11:57N 48°29' W 124°56'510.3
2018-Feb-17 11:28N 48°31' W 125°03'816.0
2018-Feb-17 11:00N 48°36' W 125°12'27966.5 240 / 101015.1 5.5 3.4 9.0
2018-Feb-17 10:59N 48°34' W 125°10'612.4
2018-Feb-17 10:31N 48°38' W 125°18'612.2
2018-Feb-17 10:00N 48°41' W 125°25'1463.9
2018-Feb-17 10:00N 48°42' W 125°24'613.1 220 / 111016.2 5.9 3.1 9.8
2018-Feb-17 09:31N 48°45' W 125°33'611.8
2018-Feb-17 09:00N 48°48' W 125°40'1101.1
2018-Feb-17 09:00N 48°48' W 125°42'4 9.2 240 / 91017.4 6.2 1.5 9.1
2018-Feb-17 08:31N 48°52' W 125°46'5 9.9
2018-Feb-17 08:00N 48°55' W 125°52'1244.1
2018-Feb-17 08:00N 48°54' W 125°54'5 9.4 230 / 81018.4 7.8 2.7 9.3
2018-Feb-17 07:30N 48°58' W 125°58'510.1
2018-Feb-17 07:00N 49°01' W 126°04'187.4
2018-Feb-17 07:00N 49°00' W 126°06'5 9.3 260 / 71019.5 7.9 2.4 9.2
2018-Feb-17 06:30N 49°04' W 126°10'611.1
2018-Feb-17 06:00N 49°06' W 126°18'157.7 270 / 71020.0 7.9 2.5 9.2
2018-Feb-17 05:58N 49°06' W 126°16'5 9.3
2018-Feb-17 05:29N 49°09' W 126°22'5 9.7
2018-Feb-17 05:01N 49°12' W 126°28'187.6
2018-Feb-17 05:00N 49°12' W 126°30'4 7.5 310 / 81020.2 7.8 2.2 9.2
2018-Feb-17 04:31N 49°15' W 126°34'5 9.7
2018-Feb-17 04:01N 49°18' W 126°40'294.7
2018-Feb-17 04:00N 49°18' W 126°42'4 7.9 310 / 111021.0 7.9 1.8 9.1
2018-Feb-17 03:31N 49°21' W 126°45'510.5
2018-Feb-17 03:00N 49°25' W 126°51'2249.4
2018-Feb-17 03:00N 49°24' W 126°48'714.9 320 / 111021.3 7.6 1.8 9.1
2018-Feb-17 02:30N 49°29' W 126°57'2 4.8
2018-Feb-17 02:00N 49°30' W 127°00'1716.7 310 / 121021.8 7.8 1.7 9.1
2018-Feb-17 01:00N 49°42' W 127°18'10 9.8 310 / 171022.7 8.3 2.0 8.8
2018-Feb-17 00:00N 49°48' W 127°30'10 9.8 300 / 121022.7 8.3 2.5 8.8
2018-Feb-16 23:00N 49°54' W 127°42'10 9.8 320 / 81021.9 7.9 1.1 9.1
2018-Feb-16 22:00N 50°00' W 127°54'6 6.0 340 / 111021.9 7.3 0.3 8.7
2018-Feb-16 21:00N 50°06' W 127°54'1414.2 340 / 161023.3 8.9 2.1 8.8
2018-Feb-16 20:00N 50°18' W 128°06'10 9.7 350 / 101023.4 8.2 3.1 8.8
2018-Feb-16 19:00N 50°24' W 127°54'10 9.7 050 / 51023.4 5.9 3.1 8.6
2018-Feb-16 18:00N 50°30' W 127°42'0 0.0 210 / 51023.6 4.7 4.0
2018-Feb-16 17:00N 50°30' W 127°42'0 0.0 280 / 41022.9 3.9 3.3
2018-Feb-16 16:00N 50°30' W 127°42'0 0.0 300 / 21022.0 3.2 2.9
2018-Feb-16 15:00N 50°30' W 127°42'0 0.0 280 / 11021.7 3.7 3.4
2018-Feb-16 14:00N 50°30' W 127°42'0 0.0 1021.7 3.5 3.1
2018-Feb-16 13:00N 50°30' W 127°42'0 0.0 110 / 21021.7 3.8 3.0
2018-Feb-16 12:00N 50°30' W 127°42'0 0.0 1022.1 3.7 3.4
2018-Feb-16 11:00N 50°30' W 127°42'0 0.0 070 / 31022.8 3.8 2.9
2018-Feb-16 10:00N 50°30' W 127°42'0 0.0 310 / 21023.1 3.5 2.3
2018-Feb-16 09:00N 50°30' W 127°42'0 0.0 330 / 21024.1 3.4 2.9
2018-Feb-16 08:00N 50°30' W 127°42'0 0.0 310 / 11024.5 3.4 2.5
2018-Feb-16 07:00N 50°30' W 127°42'0 0.0 150 / 21025.1 3.3 2.0
2018-Feb-16 06:00N 50°30' W 127°42'0 0.0 160 / 21026.0 3.5 2.3
2018-Feb-16 05:00N 50°30' W 127°42'0 0.0 250 / 11026.3 3.8 2.7
2018-Feb-16 04:00N 50°30' W 127°42'0 0.0 350 / 21026.5 3.8 3.0
2018-Feb-16 03:00N 50°30' W 127°42'0 0.0 330 / 31026.8 3.9 3.0
2018-Feb-16 02:00N 50°30' W 127°42'0 0.0 290 / 11027.2 4.3 3.3
2018-Feb-16 01:00N 50°30' W 127°42'0 0.0 310 / 31027.6 4.6 3.2
2018-Feb-16 00:00N 50°30' W 127°42'0 0.0 280 / 31028.0 4.4 2.8
2018-Feb-15 23:00N 50°30' W 127°42'   330 / 41028.0 4.4 3.0

Dump ship's entire track history